createdAt,value
2019-05-13T00:00:23.386Z,10.97
2019-05-13T00:01:23.275Z,10.92
2019-05-13T00:02:21.182Z,10.86
2019-05-13T00:03:21.171Z,10.82
2019-05-13T00:04:21.160Z,10.81
2019-05-13T00:05:23.285Z,10.82
2019-05-13T00:06:21.136Z,10.81
2019-05-13T00:07:21.127Z,10.68
2019-05-13T00:08:21.830Z,10.74
2019-05-13T00:09:21.103Z,10.78
2019-05-13T00:10:21.117Z,10.78
2019-05-13T00:11:21.082Z,10.74
2019-05-13T00:12:21.073Z,10.76
2019-05-13T00:13:21.061Z,10.67
2019-05-13T00:14:21.048Z,10.68
2019-05-13T00:15:21.061Z,10.79
2019-05-13T00:16:23.343Z,10.74
2019-05-13T00:17:21.015Z,10.74
2019-05-13T00:18:23.340Z,10.79
2019-05-13T00:19:23.280Z,10.61
2019-05-13T00:20:21.014Z,10.68
2019-05-13T00:21:23.130Z,10.64
2019-05-13T00:22:23.310Z,10.61
2019-05-13T00:23:23.235Z,10.55
2019-05-13T00:24:20.938Z,10.56
2019-05-13T00:25:20.952Z,10.56
2019-05-13T00:26:20.915Z,10.53
2019-05-13T00:27:20.904Z,10.52
2019-05-13T00:28:20.892Z,10.44
2019-05-13T00:29:20.881Z,10.44
2019-05-13T00:30:20.896Z,10.42
2019-05-13T00:31:20.859Z,10.38
2019-05-13T00:32:20.851Z,10.34
2019-05-13T00:33:20.850Z,10.44
2019-05-13T00:34:20.827Z,10.32
2019-05-13T00:35:23.158Z,10.26
2019-05-13T00:36:20.804Z,10.32
2019-05-13T00:37:20.792Z,10.27
2019-05-13T00:38:20.781Z,10.17
2019-05-13T00:39:20.768Z,10.17
2019-05-13T00:40:20.783Z,10.12
2019-05-13T00:41:20.750Z,10.08
2019-05-13T00:42:20.736Z,10.14
2019-05-13T00:43:20.725Z,10.17
2019-05-13T00:44:20.715Z,10.07
2019-05-13T00:45:20.727Z,10.15
2019-05-13T00:46:20.696Z,10.02
2019-05-13T00:47:20.682Z,10.04
2019-05-13T00:48:20.671Z,10.04
2019-05-13T00:49:20.659Z,10.05
2019-05-13T00:50:20.675Z,10.04
2019-05-13T00:51:20.642Z,10.05
2019-05-13T00:52:20.626Z,9.99
2019-05-13T00:53:20.617Z,9.91
2019-05-13T00:54:20.607Z,9.94
2019-05-13T00:55:20.621Z,9.91
2019-05-13T00:56:20.590Z,9.89
2019-05-13T00:57:20.575Z,9.89
2019-05-13T00:58:20.568Z,9.93
2019-05-13T00:59:20.555Z,9.86
2019-05-13T01:00:20.569Z,9.87
2019-05-13T01:01:20.533Z,9.84
2019-05-13T01:02:20.521Z,9.87
2019-05-13T01:03:20.511Z,9.83
2019-05-13T01:04:20.500Z,9.89
2019-05-13T01:05:20.516Z,9.84
2019-05-13T01:06:20.479Z,9.87
2019-05-13T01:07:25.917Z,9.81
2019-05-13T01:08:23.505Z,9.89
2019-05-13T01:09:20.448Z,9.86
2019-05-13T01:10:20.461Z,9.81
2019-05-13T01:11:20.430Z,9.87
2019-05-13T01:12:20.415Z,9.81
2019-05-13T01:13:20.405Z,9.78
2019-05-13T01:14:20.396Z,9.74
2019-05-13T01:15:20.405Z,9.76
2019-05-13T01:16:20.373Z,9.71
2019-05-13T01:17:20.360Z,9.74
2019-05-13T01:18:20.351Z,9.81
2019-05-13T01:19:20.340Z,9.76
2019-05-13T01:20:20.363Z,9.74
2019-05-13T01:21:20.319Z,9.72
2019-05-13T01:22:20.307Z,9.72
2019-05-13T01:23:20.297Z,9.66
2019-05-13T01:24:27.322Z,9.54
2019-05-13T01:25:20.300Z,9.69
2019-05-13T01:26:20.266Z,9.69
2019-05-13T01:27:20.252Z,9.57
2019-05-13T01:28:20.242Z,9.69
2019-05-13T01:29:20.232Z,9.71
2019-05-13T01:30:20.246Z,9.69
2019-05-13T01:31:20.209Z,9.66
2019-05-13T01:32:20.197Z,9.56
2019-05-13T01:33:20.189Z,9.58
2019-05-13T01:34:20.188Z,9.61
2019-05-13T01:35:20.193Z,9.48
2019-05-13T01:36:20.153Z,9.58
2019-05-13T01:37:20.141Z,9.50
2019-05-13T01:38:20.131Z,9.50
2019-05-13T01:39:20.119Z,9.53
2019-05-13T01:40:20.137Z,9.47
2019-05-13T01:41:20.099Z,9.48
2019-05-13T01:42:20.086Z,9.42
2019-05-13T01:43:20.076Z,9.40
2019-05-13T01:44:20.064Z,9.39
2019-05-13T01:45:20.078Z,9.38
2019-05-13T01:46:20.042Z,9.35
2019-05-13T01:47:20.033Z,9.32
2019-05-13T01:48:20.019Z,9.33
2019-05-13T01:49:20.010Z,9.35
2019-05-13T01:50:20.033Z,9.33
2019-05-13T01:51:19.984Z,9.35
2019-05-13T01:52:19.976Z,9.38
2019-05-13T01:53:19.965Z,9.38
2019-05-13T01:54:19.954Z,9.39
2019-05-13T01:55:19.968Z,9.29
2019-05-13T01:56:19.930Z,9.31
2019-05-13T01:57:19.938Z,9.21
2019-05-13T01:58:19.908Z,9.20
2019-05-13T01:59:19.898Z,9.24
2019-05-13T02:00:19.912Z,9.18
2019-05-13T02:01:19.875Z,9.13
2019-05-13T02:02:19.864Z,9.02
2019-05-13T02:03:19.854Z,9.04
2019-05-13T02:04:19.844Z,9.11
2019-05-13T02:05:19.858Z,9.04
2019-05-13T02:06:19.821Z,8.95
2019-05-13T02:07:19.808Z,8.96
2019-05-13T02:08:19.797Z,8.95
2019-05-13T02:09:19.790Z,9.02
2019-05-13T02:10:19.812Z,9.01
2019-05-13T02:11:19.762Z,8.87
2019-05-13T02:12:19.752Z,8.91
2019-05-13T02:13:19.742Z,8.86
2019-05-13T02:14:19.730Z,8.86
2019-05-13T02:15:19.747Z,8.87
2019-05-13T02:16:19.708Z,8.83
2019-05-13T02:17:19.697Z,8.79
2019-05-13T02:18:19.688Z,8.89
2019-05-13T02:19:19.675Z,8.83
2019-05-13T02:20:19.689Z,8.81
2019-05-13T02:21:19.651Z,8.86
2019-05-13T02:22:19.640Z,8.84
2019-05-13T02:23:19.630Z,8.86
2019-05-13T02:24:19.621Z,8.74
2019-05-13T02:25:19.637Z,8.71
2019-05-13T02:26:19.599Z,8.66
2019-05-13T02:27:19.589Z,8.73
2019-05-13T02:28:19.576Z,8.71
2019-05-13T02:29:19.564Z,8.63
2019-05-13T02:30:19.576Z,8.63
2019-05-13T02:31:31.944Z,8.62
2019-05-13T02:32:23.501Z,8.68
2019-05-13T02:33:22.907Z,8.63
2019-05-13T02:34:22.958Z,8.70
2019-05-13T02:35:22.985Z,8.76
2019-05-13T02:36:22.668Z,8.66
2019-05-13T02:37:22.863Z,8.63
2019-05-13T02:38:26.293Z,8.66
2019-05-13T02:39:22.343Z,8.63
2019-05-13T02:40:22.513Z,8.68
2019-05-13T02:41:22.565Z,8.62
2019-05-13T02:42:22.624Z,8.56
2019-05-13T02:43:22.743Z,8.53
2019-05-13T02:44:22.359Z,8.59
2019-05-13T02:45:22.540Z,8.58
2019-05-13T02:46:22.403Z,8.59
2019-05-13T02:47:22.385Z,8.58
2019-05-13T02:48:22.878Z,8.55
2019-05-13T02:49:22.890Z,8.55
2019-05-13T02:50:22.365Z,8.43
2019-05-13T02:51:22.722Z,8.48
2019-05-13T02:52:22.267Z,8.44
2019-05-13T02:53:19.304Z,8.37
2019-05-13T02:54:22.707Z,8.43
2019-05-13T02:55:22.154Z,8.44
2019-05-13T02:56:22.412Z,8.56
2019-05-13T02:57:19.258Z,8.50
2019-05-13T02:58:23.613Z,8.47
2019-05-13T02:59:22.745Z,8.41
2019-05-13T03:00:19.256Z,8.41
2019-05-13T03:01:22.085Z,8.40
2019-05-13T03:02:22.189Z,8.44
2019-05-13T03:03:22.690Z,8.43
2019-05-13T03:04:19.183Z,8.43
2019-05-13T03:05:21.836Z,8.41
2019-05-13T03:06:22.132Z,8.45
2019-05-13T03:07:23.014Z,8.40
2019-05-13T03:08:37.864Z,8.45
2019-05-13T03:09:23.000Z,8.40
2019-05-13T03:10:22.173Z,8.40
2019-05-13T03:11:22.461Z,8.45
2019-05-13T03:12:19.093Z,8.29
2019-05-13T03:13:19.097Z,8.37
2019-05-13T03:14:19.074Z,8.38
2019-05-13T03:15:19.090Z,8.30
2019-05-13T03:16:19.055Z,8.33
2019-05-13T03:17:22.065Z,8.33
2019-05-13T03:18:22.260Z,8.33
2019-05-13T03:19:22.170Z,8.34
2019-05-13T03:20:22.396Z,8.34
2019-05-13T03:21:19.003Z,8.34
2019-05-13T03:22:22.160Z,8.23
2019-05-13T03:23:22.472Z,8.28
2019-05-13T03:24:22.413Z,8.18
2019-05-13T03:25:22.257Z,8.23
2019-05-13T03:26:18.943Z,8.19
2019-05-13T03:27:20.700Z,8.29
2019-05-13T03:28:22.282Z,8.25
2019-05-13T03:29:21.994Z,8.18
2019-05-13T03:30:24.467Z,8.22
2019-05-13T03:31:25.486Z,8.28
2019-05-13T03:32:25.705Z,8.30
2019-05-13T03:33:26.826Z,8.11
2019-05-13T03:34:25.397Z,8.18
2019-05-13T03:35:25.681Z,8.16
2019-05-13T03:36:25.273Z,8.23
2019-05-13T03:37:25.438Z,8.19
2019-05-13T03:38:22.509Z,8.07
2019-05-13T03:39:18.797Z,8.04
2019-05-13T03:40:18.816Z,8.16
2019-05-13T03:41:18.805Z,8.08
2019-05-13T03:42:18.767Z,8.02
2019-05-13T03:43:18.754Z,8.07
2019-05-13T03:44:18.746Z,8.02
2019-05-13T03:45:21.799Z,8.01
2019-05-13T03:46:18.720Z,8.07
2019-05-13T03:47:18.707Z,8.01
2019-05-13T03:48:18.699Z,8.01
2019-05-13T03:49:18.692Z,8.02
2019-05-13T03:50:18.727Z,8.04
2019-05-13T03:51:21.938Z,8.04
2019-05-13T03:52:18.655Z,8.00
2019-05-13T03:53:18.642Z,8.01
2019-05-13T03:54:18.634Z,8.01
2019-05-13T03:55:18.648Z,7.98
2019-05-13T03:56:18.615Z,8.10
2019-05-13T03:57:18.607Z,8.00
2019-05-13T03:58:18.588Z,8.04
2019-05-13T03:59:18.583Z,8.04
2019-05-13T04:00:18.595Z,8.04
2019-05-13T04:01:18.556Z,8.04
2019-05-13T04:02:18.550Z,8.08
2019-05-13T04:03:18.542Z,8.07
2019-05-13T04:04:18.522Z,8.10
2019-05-13T04:05:18.542Z,8.10
2019-05-13T04:06:18.502Z,8.08
2019-05-13T04:07:18.500Z,8.10
2019-05-13T04:08:18.486Z,8.04
2019-05-13T04:09:27.654Z,8.07
2019-05-13T04:10:22.433Z,8.02
2019-05-13T04:11:18.446Z,8.01
2019-05-13T04:12:18.435Z,8.04
2019-05-13T04:13:18.428Z,7.97
2019-05-13T04:14:18.411Z,8.00
2019-05-13T04:15:18.427Z,7.92
2019-05-13T04:16:18.389Z,8.01
2019-05-13T04:17:18.377Z,7.98
2019-05-13T04:18:18.366Z,8.02
2019-05-13T04:19:18.369Z,8.00
2019-05-13T04:20:18.384Z,7.93
2019-05-13T04:21:18.343Z,7.97
2019-05-13T04:22:18.327Z,7.97
2019-05-13T04:23:18.313Z,7.97
2019-05-13T04:24:18.322Z,7.92
2019-05-13T04:25:18.317Z,7.92
2019-05-13T04:26:18.286Z,8.04
2019-05-13T04:27:18.275Z,8.04
2019-05-13T04:28:18.262Z,7.97
2019-05-13T04:29:18.250Z,7.95
2019-05-13T04:30:18.260Z,7.97
2019-05-13T04:31:18.234Z,8.04
2019-05-13T04:32:18.220Z,7.93
2019-05-13T04:33:18.209Z,7.92
2019-05-13T04:34:18.206Z,7.97
2019-05-13T04:35:18.205Z,7.98
2019-05-13T04:36:18.171Z,7.93
2019-05-13T04:37:18.166Z,8.00
2019-05-13T04:38:18.159Z,8.01
2019-05-13T04:39:38.915Z,8.05
2019-05-13T04:40:22.623Z,8.01
2019-05-13T04:41:18.122Z,8.11
2019-05-13T04:42:18.116Z,8.16
2019-05-13T04:43:18.113Z,8.12
2019-05-13T04:44:18.082Z,8.12
2019-05-13T04:45:18.098Z,8.07
2019-05-13T04:46:18.060Z,8.19
2019-05-13T04:47:18.047Z,8.18
2019-05-13T04:48:18.043Z,8.20
2019-05-13T04:49:18.039Z,8.22
2019-05-13T04:50:18.042Z,8.18
2019-05-13T04:51:18.008Z,8.22
2019-05-13T04:52:17.998Z,8.23
2019-05-13T04:53:17.988Z,8.26
2019-05-13T04:54:17.979Z,8.19
2019-05-13T04:55:17.986Z,8.22
2019-05-13T04:56:17.951Z,8.18
2019-05-13T04:57:17.944Z,8.23
2019-05-13T04:58:17.928Z,8.25
2019-05-13T04:59:17.933Z,8.28
2019-05-13T05:00:17.935Z,8.30
2019-05-13T05:01:17.894Z,8.26
2019-05-13T05:02:17.915Z,8.30
2019-05-13T05:03:22.915Z,8.30
2019-05-13T05:04:27.347Z,8.38
2019-05-13T05:05:22.200Z,8.29
2019-05-13T05:06:17.842Z,8.33
2019-05-13T05:07:17.837Z,8.33
2019-05-13T05:08:17.820Z,8.41
2019-05-13T05:09:17.807Z,8.41
2019-05-13T05:10:30.462Z,8.30
2019-05-13T05:11:21.946Z,8.36
2019-05-13T05:12:17.783Z,8.38
2019-05-13T05:13:17.765Z,8.38
2019-05-13T05:14:17.754Z,8.41
2019-05-13T05:15:17.778Z,8.48
2019-05-13T05:16:17.742Z,8.53
2019-05-13T05:17:17.727Z,8.53
2019-05-13T05:18:17.729Z,8.53
2019-05-13T05:19:17.740Z,8.62
2019-05-13T05:20:17.737Z,8.65
2019-05-13T05:21:17.678Z,8.66
2019-05-13T05:22:17.672Z,8.62
2019-05-13T05:23:17.657Z,8.74
2019-05-13T05:24:17.645Z,8.71
2019-05-13T05:25:17.668Z,8.76
2019-05-13T05:26:17.628Z,8.76
2019-05-13T05:27:17.615Z,8.76
2019-05-13T05:28:17.603Z,8.79
2019-05-13T05:29:17.591Z,8.79
2019-05-13T05:30:17.631Z,8.89
2019-05-13T05:31:17.658Z,8.80
2019-05-13T05:32:17.558Z,8.79
2019-05-13T05:33:17.550Z,8.92
2019-05-13T05:34:17.539Z,8.92
2019-05-13T05:35:17.553Z,8.92
2019-05-13T05:36:17.515Z,9.04
2019-05-13T05:37:17.502Z,8.95
2019-05-13T05:38:17.499Z,8.94
2019-05-13T05:39:17.485Z,8.89
2019-05-13T05:40:28.945Z,8.99
2019-05-13T05:41:18.458Z,8.94
2019-05-13T05:42:17.449Z,8.95
2019-05-13T05:43:17.437Z,8.91
2019-05-13T05:44:17.427Z,8.91
2019-05-13T05:45:17.443Z,8.99
2019-05-13T05:46:17.409Z,9.04
2019-05-13T05:47:17.450Z,9.10
2019-05-13T05:48:17.392Z,9.13
2019-05-13T05:49:17.369Z,9.15
2019-05-13T05:50:17.387Z,9.18
2019-05-13T05:51:17.349Z,9.21
2019-05-13T05:52:17.354Z,9.24
2019-05-13T05:53:17.326Z,9.31
2019-05-13T05:54:17.315Z,9.35
2019-05-13T05:55:17.336Z,9.38
2019-05-13T05:56:17.296Z,9.36
2019-05-13T05:57:17.280Z,9.36
2019-05-13T05:58:17.293Z,9.46
2019-05-13T05:59:17.260Z,9.51
2019-05-13T06:00:17.277Z,9.58
2019-05-13T06:01:17.237Z,9.60
2019-05-13T06:02:17.227Z,9.69
2019-05-13T06:03:17.217Z,9.69
2019-05-13T06:04:17.212Z,9.75
2019-05-13T06:05:17.223Z,9.75
2019-05-13T06:06:17.183Z,9.79
2019-05-13T06:07:17.172Z,9.84
2019-05-13T06:08:17.911Z,9.84
2019-05-13T06:09:17.151Z,9.79
2019-05-13T06:10:17.179Z,9.87
2019-05-13T06:11:17.128Z,9.90
2019-05-13T06:12:17.118Z,9.90
2019-05-13T06:13:17.109Z,9.90
2019-05-13T06:14:17.115Z,9.78
2019-05-13T06:15:17.115Z,9.86
2019-05-13T06:16:17.074Z,9.93
2019-05-13T06:17:17.065Z,9.94
2019-05-13T06:18:17.065Z,9.90
2019-05-13T06:19:18.002Z,10.08
2019-05-13T06:20:17.060Z,10.08
2019-05-13T06:21:17.047Z,10.04
2019-05-13T06:22:17.060Z,10.14
2019-05-13T06:23:16.999Z,10.14
2019-05-13T06:24:16.990Z,10.15
2019-05-13T06:25:17.003Z,10.26
2019-05-13T06:26:16.969Z,10.33
2019-05-13T06:27:16.955Z,10.30
2019-05-13T06:28:16.943Z,10.32
2019-05-13T06:29:16.932Z,10.42
2019-05-13T06:30:16.980Z,10.27
2019-05-13T06:31:16.910Z,10.34
2019-05-13T06:32:22.247Z,10.26
2019-05-13T06:33:17.892Z,10.40
2019-05-13T06:34:16.882Z,10.44
2019-05-13T06:35:16.898Z,10.40
2019-05-13T06:36:16.855Z,10.53
2019-05-13T06:37:16.843Z,10.51
2019-05-13T06:38:16.832Z,10.51
2019-05-13T06:39:16.819Z,10.48
2019-05-13T06:40:16.839Z,10.52
2019-05-13T06:41:16.799Z,10.64
2019-05-13T06:42:16.789Z,10.52
2019-05-13T06:43:16.774Z,10.63
2019-05-13T06:44:16.764Z,10.66
2019-05-13T06:45:16.781Z,10.74
2019-05-13T06:46:16.744Z,10.76
2019-05-13T06:47:16.737Z,10.79
2019-05-13T06:48:16.720Z,10.89
2019-05-13T06:49:16.710Z,11.00
2019-05-13T06:50:16.724Z,11.07
2019-05-13T06:51:16.694Z,11.02
2019-05-13T06:52:16.677Z,11.17
2019-05-13T06:53:16.669Z,11.17
2019-05-13T06:54:16.659Z,11.18
2019-05-13T06:55:16.671Z,11.10
2019-05-13T06:56:16.657Z,11.22
2019-05-13T06:57:16.625Z,11.19
2019-05-13T06:58:16.640Z,11.22
2019-05-13T06:59:16.604Z,11.24
2019-05-13T07:00:16.619Z,11.28
2019-05-13T07:01:16.621Z,11.36
2019-05-13T07:02:16.580Z,11.44
2019-05-13T07:03:16.559Z,11.37
2019-05-13T07:04:16.549Z,11.46
2019-05-13T07:05:16.562Z,11.51
2019-05-13T07:06:16.529Z,11.61
2019-05-13T07:07:17.459Z,11.58
2019-05-13T07:08:16.505Z,11.62
2019-05-13T07:09:16.493Z,11.73
2019-05-13T07:10:16.506Z,11.75
2019-05-13T07:11:20.956Z,11.73
2019-05-13T07:12:16.500Z,11.79
2019-05-13T07:13:16.447Z,11.79
2019-05-13T07:14:16.437Z,11.80
2019-05-13T07:15:16.453Z,11.82
2019-05-13T07:16:16.421Z,11.80
2019-05-13T07:17:16.404Z,11.83
2019-05-13T07:18:16.517Z,11.86
2019-05-13T07:19:16.383Z,11.88
2019-05-13T07:20:16.400Z,11.85
2019-05-13T07:21:16.358Z,11.95
2019-05-13T07:22:16.349Z,11.90
2019-05-13T07:23:16.337Z,11.86
2019-05-13T07:24:16.327Z,11.96
2019-05-13T07:25:23.428Z,11.91
2019-05-13T07:26:16.304Z,11.99
2019-05-13T07:27:16.294Z,11.86
2019-05-13T07:28:16.282Z,12.01
2019-05-13T07:29:16.784Z,12.05
2019-05-13T07:30:16.287Z,12.20
2019-05-13T07:31:16.249Z,12.28
2019-05-13T07:32:16.240Z,12.28
2019-05-13T07:33:16.238Z,12.24
2019-05-13T07:34:16.216Z,12.34
2019-05-13T07:35:16.250Z,12.47
2019-05-13T07:36:16.203Z,12.46
2019-05-13T07:37:16.184Z,12.34
2019-05-13T07:38:16.174Z,12.49
2019-05-13T07:39:16.162Z,12.42
2019-05-13T07:40:16.180Z,12.47
2019-05-13T07:41:16.142Z,12.42
2019-05-13T07:42:16.129Z,12.38
2019-05-13T07:43:16.128Z,12.52
2019-05-13T07:44:16.111Z,12.56
2019-05-13T07:45:16.122Z,12.50
2019-05-13T07:46:16.086Z,12.52
2019-05-13T07:47:16.212Z,12.57
2019-05-13T07:48:20.955Z,12.49
2019-05-13T07:49:17.051Z,12.72
2019-05-13T07:50:16.082Z,12.64
2019-05-13T07:51:16.037Z,12.65
2019-05-13T07:52:16.020Z,12.71
2019-05-13T07:53:19.004Z,12.72
2019-05-13T07:54:15.999Z,12.72
2019-05-13T07:55:15.985Z,12.75
2019-05-13T07:56:16.020Z,12.86
2019-05-13T07:57:15.964Z,12.85
2019-05-13T07:58:15.955Z,12.97
2019-05-13T07:59:15.942Z,12.96
2019-05-13T08:00:15.931Z,12.97
2019-05-13T08:01:15.922Z,12.95
2019-05-13T08:02:15.946Z,12.92
2019-05-13T08:03:15.896Z,12.90
2019-05-13T08:04:22.529Z,12.92
2019-05-13T08:05:16.873Z,12.89
2019-05-13T08:06:15.864Z,12.92
2019-05-13T08:07:15.857Z,13.00
2019-05-13T08:08:15.877Z,13.07
2019-05-13T08:09:15.830Z,13.17
2019-05-13T08:10:15.817Z,13.23
2019-05-13T08:11:15.837Z,13.25
2019-05-13T08:12:15.887Z,13.20
2019-05-13T08:13:15.789Z,13.26
2019-05-13T08:14:15.813Z,13.26
2019-05-13T08:15:15.836Z,13.20
2019-05-13T08:16:15.752Z,13.23
2019-05-13T08:17:15.908Z,13.23
2019-05-13T08:18:15.767Z,13.25
2019-05-13T08:19:15.718Z,13.30
2019-05-13T08:20:15.746Z,13.29
2019-05-13T08:21:15.698Z,13.45
2019-05-13T08:22:15.690Z,13.39
2019-05-13T08:23:15.677Z,13.45
2019-05-13T08:24:15.666Z,13.42
2019-05-13T08:25:15.656Z,13.48
2019-05-13T08:26:15.681Z,13.48
2019-05-13T08:27:15.643Z,13.20
2019-05-13T08:28:15.623Z,13.26
2019-05-13T08:29:15.612Z,13.08
2019-05-13T08:30:18.039Z,13.11
2019-05-13T08:31:15.602Z,12.96
2019-05-13T08:32:15.617Z,13.08
2019-05-13T08:33:15.568Z,13.10
2019-05-13T08:34:15.561Z,13.22
2019-05-13T08:35:15.546Z,13.26
2019-05-13T08:36:15.536Z,13.45
2019-05-13T08:37:15.526Z,13.45
2019-05-13T08:38:15.549Z,13.51
2019-05-13T08:39:15.503Z,13.63
2019-05-13T08:40:15.493Z,13.69
2019-05-13T08:41:19.377Z,13.70
2019-05-13T08:42:19.814Z,13.82
2019-05-13T08:43:16.552Z,13.87
2019-05-13T08:44:15.451Z,14.00
2019-05-13T08:45:15.441Z,14.09
2019-05-13T08:46:15.430Z,14.22
2019-05-13T08:47:15.422Z,14.06
2019-05-13T08:48:15.408Z,14.18
2019-05-13T08:49:15.434Z,14.27
2019-05-13T08:50:15.386Z,14.35
2019-05-13T08:51:15.378Z,14.35
2019-05-13T08:52:15.452Z,14.40
2019-05-13T08:53:15.356Z,14.50
2019-05-13T08:54:15.343Z,14.61
2019-05-13T08:55:16.205Z,14.62
2019-05-13T08:56:15.319Z,14.54
2019-05-13T08:57:15.310Z,14.60
2019-05-13T08:58:15.298Z,14.54
2019-05-13T08:59:15.288Z,14.42
2019-05-13T09:00:15.280Z,14.46
2019-05-13T09:01:15.300Z,14.50
2019-05-13T09:02:15.254Z,14.51
2019-05-13T09:03:15.247Z,14.45
2019-05-13T09:04:15.229Z,14.42
2019-05-13T09:05:15.220Z,14.22
2019-05-13T09:06:15.208Z,14.14
2019-05-13T09:07:15.234Z,14.14
2019-05-13T09:08:15.194Z,14.06
2019-05-13T09:09:15.174Z,13.96
2019-05-13T09:10:15.165Z,14.02
2019-05-13T09:11:15.151Z,14.04
2019-05-13T09:12:28.436Z,14.10
2019-05-13T09:13:16.165Z,14.12
2019-05-13T09:14:15.117Z,14.10
2019-05-13T09:15:15.107Z,14.17
2019-05-13T09:16:15.097Z,14.33
2019-05-13T09:17:15.087Z,14.33
2019-05-13T09:18:15.072Z,14.40
2019-05-13T09:19:16.234Z,14.54
2019-05-13T09:20:15.048Z,14.65
2019-05-13T09:21:15.038Z,14.72
2019-05-13T09:22:15.026Z,14.61
2019-05-13T09:23:15.017Z,14.65
2019-05-13T09:24:25.401Z,14.46
2019-05-13T09:25:16.029Z,14.40
2019-05-13T09:26:14.982Z,14.10
2019-05-13T09:27:14.973Z,14.12
2019-05-13T09:28:14.959Z,14.10
2019-05-13T09:29:14.947Z,14.09
2019-05-13T09:30:14.938Z,14.20
2019-05-13T09:31:14.964Z,14.39
2019-05-13T09:32:14.917Z,14.39
2019-05-13T09:33:14.901Z,14.46
2019-05-13T09:34:14.896Z,14.60
2019-05-13T09:35:14.881Z,14.75
2019-05-13T09:36:14.871Z,14.73
2019-05-13T09:37:14.896Z,14.75
2019-05-13T09:38:14.858Z,14.86
2019-05-13T09:39:14.855Z,14.91
2019-05-13T09:40:14.825Z,14.89
2019-05-13T09:41:14.816Z,14.80
2019-05-13T09:42:14.803Z,14.94
2019-05-13T09:43:14.829Z,14.80
2019-05-13T09:44:14.783Z,14.92
2019-05-13T09:45:14.772Z,14.80
2019-05-13T09:46:14.761Z,14.55
2019-05-13T09:47:14.752Z,14.72
2019-05-13T09:48:14.740Z,14.81
2019-05-13T09:49:19.778Z,14.69
2019-05-13T09:50:28.642Z,14.83
2019-05-13T09:51:15.705Z,14.88
2019-05-13T09:52:14.697Z,14.94
2019-05-13T09:53:14.684Z,14.86
2019-05-13T09:54:14.673Z,14.86
2019-05-13T09:55:26.460Z,14.89
2019-05-13T09:56:15.650Z,14.84
2019-05-13T09:57:14.640Z,14.80
2019-05-13T09:58:14.630Z,14.89
2019-05-13T09:59:14.620Z,14.91
2019-05-13T10:00:14.666Z,14.99
2019-05-13T10:01:14.652Z,14.96
2019-05-13T10:02:14.587Z,14.95
2019-05-13T10:03:14.587Z,14.98
2019-05-13T10:04:14.566Z,14.92
2019-05-13T10:05:14.567Z,14.89
2019-05-13T10:06:14.549Z,14.92
2019-05-13T10:07:14.586Z,15.07
2019-05-13T10:08:14.525Z,15.02
2019-05-13T10:09:14.513Z,15.14
2019-05-13T10:10:14.505Z,15.14
2019-05-13T10:11:14.493Z,15.13
2019-05-13T10:12:14.480Z,14.99
2019-05-13T10:13:15.681Z,14.95
2019-05-13T10:14:14.469Z,15.01
2019-05-13T10:15:14.451Z,14.94
2019-05-13T10:16:14.441Z,15.07
2019-05-13T10:17:14.428Z,15.07
2019-05-13T10:18:14.417Z,15.11
2019-05-13T10:19:14.442Z,15.03
2019-05-13T10:20:14.397Z,14.91
2019-05-13T10:21:14.385Z,14.92
2019-05-13T10:22:14.373Z,14.91
2019-05-13T10:23:14.367Z,14.96
2019-05-13T10:24:14.353Z,14.98
2019-05-13T10:25:14.379Z,15.06
2019-05-13T10:26:14.708Z,15.06
2019-05-13T10:27:18.686Z,15.02
2019-05-13T10:28:14.311Z,14.95
2019-05-13T10:29:14.301Z,14.98
2019-05-13T10:30:14.288Z,14.89
2019-05-13T10:31:14.313Z,14.86
2019-05-13T10:32:14.273Z,14.98
2019-05-13T10:33:14.255Z,14.89
2019-05-13T10:34:14.375Z,14.81
2019-05-13T10:35:14.234Z,14.98
2019-05-13T10:36:14.223Z,15.09
2019-05-13T10:37:14.248Z,15.20
2019-05-13T10:38:14.227Z,15.19
2019-05-13T10:39:14.202Z,15.09
2019-05-13T10:40:14.180Z,15.21
2019-05-13T10:41:14.171Z,15.36
2019-05-13T10:42:14.169Z,15.36
2019-05-13T10:43:29.321Z,15.47
2019-05-13T10:44:15.134Z,15.59
2019-05-13T10:45:14.150Z,15.38
2019-05-13T10:46:14.119Z,15.38
2019-05-13T10:47:14.134Z,15.54
2019-05-13T10:48:14.096Z,15.50
2019-05-13T10:49:14.121Z,15.49
2019-05-13T10:50:14.072Z,15.67
2019-05-13T10:51:14.064Z,15.62
2019-05-13T10:52:14.049Z,15.57
2019-05-13T10:53:14.038Z,15.75
2019-05-13T10:54:14.028Z,15.75
2019-05-13T10:55:14.072Z,15.93
2019-05-13T10:56:14.028Z,16.04
2019-05-13T10:57:14.055Z,16.07
2019-05-13T10:58:14.011Z,15.93
2019-05-13T10:59:14.049Z,16.01
2019-05-13T11:00:13.977Z,16.04
2019-05-13T11:01:13.992Z,16.31
2019-05-13T11:02:13.946Z,16.24
2019-05-13T11:03:13.931Z,16.34
2019-05-13T11:04:14.049Z,16.39
2019-05-13T11:05:13.932Z,16.63
2019-05-13T11:06:13.952Z,16.71
2019-05-13T11:07:13.887Z,16.82
2019-05-13T11:08:13.878Z,16.97
2019-05-13T11:09:13.874Z,17.15
2019-05-13T11:10:13.882Z,17.18
2019-05-13T11:11:13.840Z,17.43
2019-05-13T11:12:13.827Z,17.44
2019-05-13T11:13:13.818Z,17.95
2019-05-13T11:14:15.758Z,18.45
2019-05-13T11:15:13.822Z,18.85
2019-05-13T11:16:13.783Z,19.07
2019-05-13T11:17:13.775Z,18.84
2019-05-13T11:18:18.934Z,18.48
2019-05-13T11:19:14.752Z,18.12
2019-05-13T11:20:13.767Z,17.84
2019-05-13T11:21:13.730Z,17.93
2019-05-13T11:22:13.722Z,18.70
2019-05-13T11:23:13.709Z,19.26
2019-05-13T11:24:13.712Z,19.96
2019-05-13T11:25:13.712Z,19.32
2019-05-13T11:26:13.674Z,18.92
2019-05-13T11:27:13.664Z,18.66
2019-05-13T11:28:13.652Z,18.32
2019-05-13T11:29:13.661Z,17.97
2019-05-13T11:30:13.657Z,17.86
2019-05-13T11:31:13.621Z,17.72
2019-05-13T11:32:13.678Z,17.59
2019-05-13T11:33:13.598Z,17.54
2019-05-13T11:34:13.623Z,17.49
2019-05-13T11:35:13.625Z,17.34
2019-05-13T11:36:18.906Z,17.23
2019-05-13T11:37:14.556Z,17.04
2019-05-13T11:38:13.542Z,17.01
2019-05-13T11:39:13.531Z,16.73
2019-05-13T11:40:13.549Z,16.81
2019-05-13T11:41:13.509Z,16.70
2019-05-13T11:42:13.976Z,16.70
2019-05-13T11:43:13.489Z,16.88
2019-05-13T11:44:16.683Z,16.82
2019-05-13T11:45:13.503Z,17.70
2019-05-13T11:46:13.455Z,18.98
2019-05-13T11:47:13.446Z,19.78
2019-05-13T11:48:13.433Z,20.51
2019-05-13T11:49:13.434Z,20.99
2019-05-13T11:50:13.449Z,21.64
2019-05-13T11:51:13.401Z,22.05
2019-05-13T11:52:13.412Z,22.52
2019-05-13T11:53:31.268Z,23.02
2019-05-13T11:54:14.392Z,23.40
2019-05-13T11:55:13.383Z,23.75
2019-05-13T11:56:13.346Z,23.63
2019-05-13T11:57:13.347Z,23.84
2019-05-13T11:58:14.089Z,24.16
2019-05-13T11:59:13.933Z,24.42
2019-05-13T12:00:13.701Z,24.71
2019-05-13T12:01:13.292Z,24.83
2019-05-13T12:02:13.986Z,23.31
2019-05-13T12:03:13.292Z,23.32
2019-05-13T12:04:13.324Z,23.73
2019-05-13T12:05:13.274Z,24.21
2019-05-13T12:06:13.238Z,24.49
2019-05-13T12:07:13.662Z,24.84
2019-05-13T12:08:13.215Z,25.09
2019-05-13T12:09:13.488Z,25.10
2019-05-13T12:10:13.221Z,25.24
2019-05-13T12:11:13.946Z,25.50
2019-05-13T12:12:13.567Z,25.67
2019-05-13T12:13:13.163Z,25.85
2019-05-13T12:14:37.031Z,25.79
2019-05-13T12:15:28.878Z,25.64
2019-05-13T12:16:14.129Z,25.39
2019-05-13T12:17:14.203Z,25.54
2019-05-13T12:18:13.108Z,25.85
2019-05-13T12:19:13.097Z,26.07
2019-05-13T12:20:13.112Z,26.18
2019-05-13T12:21:13.075Z,26.45
2019-05-13T12:22:13.385Z,26.51
2019-05-13T12:23:13.240Z,26.50
2019-05-13T12:24:13.045Z,26.12
2019-05-13T12:25:13.992Z,25.65
2019-05-13T12:26:13.169Z,24.64
2019-05-13T12:27:13.009Z,23.94
2019-05-13T12:28:13.003Z,23.48
2019-05-13T12:29:18.572Z,22.97
2019-05-13T12:30:14.016Z,22.88
2019-05-13T12:31:13.001Z,23.02
2019-05-13T12:32:13.770Z,23.78
2019-05-13T12:33:13.617Z,23.32
2019-05-13T12:34:13.384Z,23.63
2019-05-13T12:35:13.519Z,24.13
2019-05-13T12:36:18.021Z,24.81
2019-05-13T12:37:13.903Z,25.47
2019-05-13T12:38:13.467Z,25.99
2019-05-13T12:39:14.273Z,25.83
2019-05-13T12:40:12.898Z,25.13
2019-05-13T12:41:13.189Z,24.34
2019-05-13T12:42:12.996Z,24.00
2019-05-13T12:43:14.088Z,24.20
2019-05-13T12:44:13.163Z,24.64
2019-05-13T12:45:14.284Z,24.34
2019-05-13T12:46:12.811Z,23.80
2019-05-13T12:47:12.800Z,23.32
2019-05-13T12:48:14.118Z,22.86
2019-05-13T12:49:14.313Z,22.47
2019-05-13T12:50:13.864Z,22.18
2019-05-13T12:51:13.420Z,22.33
2019-05-13T12:52:13.307Z,23.10
2019-05-13T12:53:13.019Z,24.00
2019-05-13T12:54:13.938Z,24.62
2019-05-13T12:55:14.008Z,25.30
2019-05-13T12:56:12.794Z,25.38
2019-05-13T12:57:15.659Z,25.75
2019-05-13T12:58:12.684Z,26.21
2019-05-13T12:59:13.537Z,26.65
2019-05-13T13:00:13.363Z,27.10
2019-05-13T13:01:12.971Z,26.89
2019-05-13T13:02:13.290Z,25.85
2019-05-13T13:03:13.479Z,25.00